Borssele, Netherlands
Current Conditions -  °F | °C
As of 4:55 PM on Tuesday 21 Oct 2014 (Local Time) from EHFS Reporting Station
Thunderstorm Thunderstorm  
Wind Chill: 54°   Ceiling: Unl
Heat Index: 54°   Visibility: 6mi
Dew Point: 43°   Wind: 33mph
Humidity: 67%   Direction: 290°WNW
Pressure: 29.62"   Gusts: 48mph
Location:  51.42°N, 3.73°E
Report Text: EHFS 211455Z AUTO 29029G42KT 260V340 9999 TS FEW034///SCT046/// 12/06 Q1003 REDZ
Loading
Personal Weather Stations






























Interactive Weather Map
Tropical Storm Tracking
New forecast layout! Learn more

10-Day Weather Forecast

Advertisements
Track Severe Weather on mobile